Time;durP1;ratioP1;P1;durP2;ratioP2;P2;SDS_P1;SDS_P2;PMS_P1;PMS_P2;Temp;Humidity;BMP_temperature;BMP_pressure;BME280_temperature;BME280_humidity;BME280_pressure;Samples;Min_cycle;Max_cycle;Signal;HPM_P1;HPM_P2
2022/10/27 00:00:49;;;;;;;282.27;266.55;;;10.70;99.90;;;10.75;100.00;101215.88;4991218;28;20319;-67
2022/10/27 00:03:17;;;;;;;272.40;257.50;;;10.50;99.90;;;10.33;100.00;101183.22;5003128;28;20716;-68
2022/10/27 00:05:46;;;;;;;274.25;258.27;;;10.30;99.90;;;10.47;100.00;101206.47;5001687;28;20228;-67
2022/10/27 00:08:19;;;;;;;264.92;249.35;;;10.40;99.90;;;10.50;100.00;101213.59;4980376;28;20264;-68
2022/10/27 00:11:07;;;;;;;266.70;251.55;;;10.40;99.90;;;10.68;100.00;101231.59;5005778;28;20235;-67
2022/10/27 00:13:35;;;;;;;255.13;238.60;;;10.50;99.90;;;10.70;100.00;101236.06;4986321;28;20232;-67
2022/10/27 00:16:10;;;;;;;258.85;243.52;;;10.50;99.90;;;10.73;100.00;101244.06;5027092;28;20231;-67
2022/10/27 00:18:37;;;;;;;257.52;243.77;;;10.50;99.90;;;10.74;100.00;101251.16;5020286;28;20230;-68
2022/10/27 00:21:08;;;;;;;259.92;243.05;;;10.60;99.90;;;10.71;100.00;101248.44;5009390;28;20262;-67
2022/10/27 00:23:36;;;;;;;239.75;226.23;;;10.60;99.90;;;10.82;100.00;101252.19;5016587;28;20309;-67
2022/10/27 00:26:06;;;;;;;237.32;223.02;;;10.60;99.90;;;10.81;100.00;101260.09;5021708;28;20219;-67
2022/10/27 00:28:33;;;;;;;231.95;218.32;;;10.60;99.90;;;10.83;100.00;101247.81;4998291;28;20259;-67
2022/10/27 00:31:21;;;;;;;241.45;224.68;;;10.60;99.90;;;10.84;100.00;101255.78;5001391;28;20313;-67
2022/10/27 00:33:49;;;;;;;227.02;214.55;;;10.60;99.90;;;10.72;100.00;101244.94;5008345;28;20232;-68
2022/10/27 00:36:23;;;;;;;241.20;226.63;;;10.60;99.90;;;10.55;100.00;101231.34;5029630;28;20256;-67
2022/10/27 00:38:55;;;;;;;260.35;244.10;;;10.50;99.90;;;10.37;100.00;101227.38;5000326;28;20248;-67
2022/10/27 00:41:40;;;;;;;270.33;253.68;;;10.20;99.90;;;10.43;100.00;101224.88;5022502;28;20253;-67
2022/10/27 00:44:28;;;;;;;264.63;247.55;;;10.20;99.90;;;10.47;100.00;101219.69;5022507;28;20241;-68
2022/10/27 00:46:57;;;;;;;225.88;211.45;;;10.30;99.90;;;10.22;100.00;101202.38;5014835;28;20246;-67
2022/10/27 00:49:30;;;;;;;222.40;209.68;;;10.20;99.90;;;10.35;100.00;101219.41;4999156;28;20232;-67
2022/10/27 00:52:03;;;;;;;243.55;228.30;;;10.20;99.90;;;10.51;100.00;101224.19;5034718;28;20321;-67
2022/10/27 00:54:36;;;;;;;244.68;228.60;;;10.30;99.90;;;10.42;100.00;101215.16;4975598;28;20700;-67
2022/10/27 00:57:16;;;;;;;247.68;232.23;;;10.30;99.90;;;10.08;100.00;101181.72;5024581;28;20631;-67
2022/10/27 00:59:44;;;;;;;245.13;229.45;;;10.10;99.90;;;9.98;100.00;101191.19;5025586;28;20706;-67
2022/10/27 01:02:11;;;;;;;247.93;230.85;;;9.90;99.90;;;9.97;100.00;101199.97;4990247;28;20285;-67
2022/10/27 01:04:49;;;;;;;241.68;225.95;;;9.80;99.90;;;9.93;100.00;101199.03;5016753;28;20314;-68
2022/10/27 01:07:18;;;;;;;234.90;221.68;;;9.80;99.90;;;9.79;100.00;101194.25;5018868;28;20664;-67
2022/10/27 01:09:46;;;;;;;239.27;224.07;;;9.80;99.90;;;9.94;100.00;101205.19;5010217;28;20239;-67
2022/10/27 01:12:13;;;;;;;250.93;234.63;;;9.80;99.90;;;9.80;100.00;101196.94;5001085;28;20242;-67
2022/10/27 01:14:40;;;;;;;243.80;228.32;;;9.70;99.90;;;10.02;100.00;101221.22;5000429;28;20232;-67
2022/10/27 01:17:41;;;;;;;234.30;218.93;;;9.90;99.90;;;10.14;100.00;101237.38;4982051;28;20257;-69
2022/10/27 01:20:29;;;;;;;246.60;228.40;;;10.00;99.90;;;10.20;100.00;101232.28;5005465;28;20309;-68
2022/10/27 01:23:15;;;;;;;216.10;203.50;;;9.80;99.90;;;9.85;100.00;101204.97;4997094;28;20666;-67
2022/10/27 01:26:32;;;;;;;237.55;221.98;;;9.80;99.90;;;9.88;100.00;101213.88;5013890;28;20322;-68
2022/10/27 01:29:17;;;;;;;240.18;224.35;;;9.70;99.90;;;10.06;100.00;101231.03;5029410;28;20290;-67
2022/10/27 01:32:18;;;;;;;245.15;228.23;;;9.90;99.90;;;10.00;100.00;101218.56;4999673;28;21204;-67
2022/10/27 01:35:18;;;;;;;237.35;221.57;;;9.90;99.90;;;9.78;100.00;101205.69;5022677;28;20231;-67
2022/10/27 01:37:53;;;;;;;233.68;219.38;;;9.60;99.90;;;9.90;100.00;101212.16;5007977;28;20238;-67
2022/10/27 01:40:36;;;;;;;247.55;230.93;;;9.70;99.90;;;9.54;100.00;101187.47;5001339;28;20329;-67
2022/10/27 01:43:13;;;;;;;245.27;228.57;;;9.50;99.90;;;9.29;100.00;101178.94;5011234;28;20231;-67
2022/10/27 01:45:41;;;;;;;236.57;220.70;;;9.30;99.90;;;9.38;100.00;101201.16;4984974;28;20248;-67
2022/10/27 01:48:10;;;;;;;241.00;225.02;;;9.20;99.90;;;9.13;100.00;101189.94;4979638;28;20307;-67
2022/10/27 01:50:40;;;;;;;233.77;219.07;;;9.30;99.90;;;9.58;100.00;101234.25;5009994;28;20241;-68
2022/10/27 01:53:30;;;;;;;235.00;218.75;;;9.30;99.90;;;9.81;100.00;101251.56;5009703;28;20227;-67
2022/10/27 01:56:40;;;;;;;228.50;212.63;;;9.60;99.90;;;9.83;100.00;101262.16;4985044;28;20234;-67
2022/10/27 01:59:36;;;;;;;248.07;226.30;;;9.60;99.90;;;9.85;100.00;101279.84;5013307;28;20292;-67
2022/10/27 02:02:24;;;;;;;222.20;206.20;;;9.70;99.90;;;9.81;100.00;101280.63;4998383;28;20304;-67
2022/10/27 02:05:18;;;;;;;221.20;205.15;;;9.70;99.90;;;9.65;100.00;101270.50;4989471;28;20238;-67
2022/10/27 02:07:53;;;;;;;217.45;201.52;;;9.60;99.90;;;9.68;100.00;101283.81;4997943;28;20239;-67
2022/10/27 02:10:55;;;;;;;216.23;201.57;;;9.50;99.90;;;9.46;100.00;101279.69;4999871;28;20227;-67
2022/10/27 02:13:22;;;;;;;204.93;191.00;;;9.40;99.90;;;9.39;100.00;101277.75;4993323;28;20223;-67
2022/10/27 02:15:55;;;;;;;197.20;185.50;;;9.30;99.90;;;9.32;100.00;101277.53;4993272;28;20255;-67
2022/10/27 02:18:55;;;;;;;215.38;201.55;;;9.30;99.90;;;9.37;100.00;101284.72;5008493;28;20262;-67
2022/10/27 02:21:24;;;;;;;211.88;197.63;;;9.20;99.90;;;9.21;100.00;101271.97;5011157;28;20235;-67
2022/10/27 02:23:52;;;;;;;220.77;205.25;;;9.10;99.90;;;9.24;100.00;101282.59;5018869;28;20308;-67
2022/10/27 02:26:25;;;;;;;242.60;224.70;;;9.10;99.90;;;9.32;100.00;101290.72;5018910;28;20338;-67
2022/10/27 02:29:28;;;;;;;225.70;211.38;;;9.20;99.90;;;9.22;100.00;101274.66;4988297;28;20259;-67
2022/10/27 02:31:59;;;;;;;234.38;216.77;;;9.10;99.90;;;9.10;100.00;101258.47;4981108;28;20269;-67
2022/10/27 02:34:27;;;;;;;235.68;218.32;;;9.10;99.90;;;9.02;100.00;101252.06;4976276;28;20295;-67
2022/10/27 02:36:54;;;;;;;236.10;216.23;;;8.90;99.90;;;9.01;100.00;101255.53;5022145;28;20238;-67
2022/10/27 02:39:21;;;;;;;206.55;192.27;;;8.90;99.90;;;9.10;100.00;101255.84;4981760;28;20806;-67
2022/10/27 02:41:48;;;;;;;206.13;191.50;;;9.00;99.90;;;9.23;100.00;101271.16;5000871;28;20235;-67
2022/10/27 02:44:15;;;;;;;212.00;197.05;;;9.10;99.90;;;9.21;100.00;101264.94;5013846;28;20265;-67
2022/10/27 02:46:42;;;;;;;213.80;198.80;;;9.20;99.90;;;9.48;100.00;101290.31;5015260;28;20231;-67
2022/10/27 02:49:11;;;;;;;169.75;156.50;;;9.20;99.90;;;9.39;100.00;101284.78;5017089;28;20235;-67
2022/10/27 02:51:38;;;;;;;181.65;168.32;;;9.30;99.90;;;9.37;100.00;101287.38;5010559;28;20245;-67
2022/10/27 02:54:05;;;;;;;188.23;175.15;;;9.20;99.90;;;9.38;100.00;101289.16;4999004;28;20263;-67
2022/10/27 02:56:32;;;;;;;175.20;163.65;;;9.20;99.90;;;9.55;100.00;101314.28;5013506;28;20225;-67
2022/10/27 02:58:59;;;;;;;185.02;172.13;;;9.40;99.90;;;9.67;100.00;101321.63;4993861;28;20687;-67
2022/10/27 03:01:26;;;;;;;186.80;174.00;;;9.50;99.90;;;9.68;100.00;101326.06;4980478;28;20232;-67
2022/10/27 03:03:53;;;;;;;180.90;168.52;;;9.50;99.90;;;9.71;100.00;101326.16;4977836;28;20256;-66
2022/10/27 03:06:20;;;;;;;177.07;165.18;;;9.50;99.90;;;9.62;100.00;101321.50;4988472;28;20240;-67
2022/10/27 03:08:47;;;;;;;188.52;175.75;;;9.50;99.90;;;9.61;100.00;101319.72;5007116;28;20234;-67
2022/10/27 03:11:13;;;;;;;185.85;172.38;;;9.50;99.90;;;9.58;100.00;101318.75;4977361;28;20265;-67
2022/10/27 03:13:40;;;;;;;189.85;177.20;;;9.50;99.90;;;9.63;100.00;101320.66;4996783;28;20260;-66
2022/10/27 03:16:07;;;;;;;196.75;181.77;;;9.50;99.90;;;9.69;100.00;101330.50;4999273;28;20323;-67
2022/10/27 03:18:34;;;;;;;185.85;173.52;;;9.60;99.90;;;9.70;100.00;101327.00;4994173;28;20236;-67
2022/10/27 03:21:02;;;;;;;194.50;181.60;;;9.60;99.90;;;9.61;100.00;101324.09;5020707;28;20309;-67
2022/10/27 03:23:28;;;;;;;204.13;190.55;;;9.50;99.90;;;9.58;100.00;101322.28;5004205;28;20262;-67
2022/10/27 03:25:55;;;;;;;225.13;208.70;;;9.40;99.90;;;9.56;100.00;101316.06;5009743;28;20314;-67
2022/10/27 03:28:29;;;;;;;217.15;202.13;;;9.40;99.90;;;9.55;100.00;101319.56;5005627;28;20236;-67
2022/10/27 03:30:56;;;;;;;211.93;197.23;;;9.40;99.90;;;9.56;100.00;101320.44;5023071;28;20234;-67
2022/10/27 03:33:23;;;;;;;228.63;212.40;;;9.40;99.90;;;9.65;100.00;101325.97;5003645;28;20310;-66
2022/10/27 03:35:50;;;;;;;238.00;221.27;;;9.40;99.90;;;9.58;100.00;101310.81;5005493;28;20318;-67
2022/10/27 03:38:17;;;;;;;190.15;176.82;;;9.40;99.90;;;9.44;100.00;101299.00;4991723;28;20317;-67
2022/10/27 03:40:44;;;;;;;190.02;177.30;;;9.50;99.90;;;9.73;100.00;101326.19;5021012;28;20241;-67
2022/10/27 03:43:11;;;;;;;197.07;183.70;;;9.50;99.90;;;9.74;100.00;101326.22;4999857;28;20307;-67
2022/10/27 03:45:38;;;;;;;208.65;194.70;;;9.60;99.90;;;9.74;100.00;101330.63;4999731;28;20257;-68
2022/10/27 03:48:11;;;;;;;200.02;186.63;;;9.60;99.90;;;9.74;100.00;101327.97;4988262;28;20290;-67
2022/10/27 03:50:38;;;;;;;198.27;185.38;;;9.60;99.90;;;9.71;100.00;101335.81;5008923;28;20234;-68
2022/10/27 03:53:05;;;;;;;201.85;188.55;;;9.60;99.90;;;9.76;100.00;101344.75;5014328;28;20270;-66
2022/10/27 03:55:34;;;;;;;191.00;178.15;;;9.60;99.90;;;9.75;100.00;101338.56;5028394;28;20680;-66
2022/10/27 03:58:01;;;;;;;188.35;175.90;;;9.60;99.90;;;9.82;100.00;101345.81;5015513;28;20322;-67
2022/10/27 04:00:30;;;;;;;174.85;162.75;;;9.70;99.90;;;9.80;100.00;101350.16;5003295;28;20235;-67
2022/10/27 04:02:57;;;;;;;197.55;183.70;;;9.70;99.90;;;9.79;100.00;101355.41;5013792;28;20239;-67
2022/10/27 04:05:24;;;;;;;184.48;172.27;;;9.70;99.90;;;9.77;100.00;101354.47;5011906;28;20285;-67
2022/10/27 04:07:51;;;;;;;180.75;168.80;;;9.70;99.90;;;9.74;100.00;101354.38;5026598;28;20325;-67
2022/10/27 04:10:18;;;;;;;185.27;172.45;;;9.50;99.90;;;9.68;100.00;101347.19;5007270;28;20327;-67
2022/10/27 04:12:50;;;;;;;180.52;170.40;;;9.60;99.90;;;9.74;100.00;101350.00;5005601;28;20790;-67
2022/10/27 04:15:20;;;;;;;201.32;187.32;;;9.60;99.90;;;9.75;100.00;101353.53;5020550;28;20232;-67
2022/10/27 04:17:46;;;;;;;189.27;176.48;;;9.60;99.90;;;9.69;100.00;101341.06;5021670;28;20322;-67
2022/10/27 04:20:14;;;;;;;179.98;169.20;;;9.60;99.90;;;9.60;100.00;101330.25;5017965;28;20342;-67
2022/10/27 04:22:41;;;;;;;191.77;178.07;;;9.50;99.90;;;9.65;100.00;101333.91;5007300;28;20227;-67
2022/10/27 04:25:08;;;;;;;192.27;179.38;;;9.50;99.90;;;9.71;100.00;101336.72;5003007;28;20274;-67
2022/10/27 04:27:35;;;;;;;183.50;171.00;;;9.60;99.90;;;9.73;100.00;101334.09;5023213;28;20250;-67
2022/10/27 04:30:03;;;;;;;175.80;165.13;;;9.60;99.90;;;9.59;100.00;101328.44;5007257;28;20322;-67
2022/10/27 04:32:30;;;;;;;189.25;176.60;;;9.50;99.90;;;9.48;100.00;101320.25;5004911;28;20244;-67
2022/10/27 04:34:56;;;;;;;190.82;178.07;;;9.40;99.90;;;9.63;100.00;101332.97;4999995;28;20269;-67
2022/10/27 04:37:23;;;;;;;187.57;176.27;;;9.40;99.90;;;9.59;100.00;101321.44;5027870;28;20292;-67
2022/10/27 04:39:50;;;;;;;196.25;183.50;;;9.50;99.90;;;9.43;100.00;101311.31;5026650;28;20247;-66
2022/10/27 04:42:17;;;;;;;188.45;176.00;;;9.40;99.90;;;9.35;100.00;101314.56;5005682;28;20342;-67
2022/10/27 04:44:44;;;;;;;201.00;187.50;;;9.30;99.90;;;9.35;100.00;101311.94;5019251;28;20293;-67
2022/10/27 04:47:11;;;;;;;201.35;188.43;;;9.20;99.90;;;9.56;100.00;101326.63;5015039;28;20256;-67
2022/10/27 04:49:38;;;;;;;210.10;195.00;;;9.40;99.90;;;9.61;100.00;101330.28;5005985;28;20906;-67
2022/10/27 04:52:05;;;;;;;178.07;166.05;;;9.50;99.90;;;9.58;100.00;101326.66;5008238;28;20235;-67
2022/10/27 04:54:32;;;;;;;172.52;159.32;;;9.50;99.90;;;9.76;100.00;101343.00;5014201;28;20337;-66
2022/10/27 04:56:59;;;;;;;178.32;166.23;;;9.60;99.90;;;9.63;100.00;101333.84;4975900;28;20232;-66
2022/10/27 04:59:26;;;;;;;177.07;165.93;;;9.50;99.90;;;9.72;100.00;101346.41;4984888;28;20645;-67
2022/10/27 05:01:53;;;;;;;184.90;171.95;;;9.60;99.90;;;9.72;100.00;101354.34;5014850;28;21037;-67
2022/10/27 05:04:20;;;;;;;188.07;174.98;;;9.60;99.90;;;9.91;100.00;101372.47;4995570;28;20299;-67
2022/10/27 05:06:47;;;;;;;177.90;164.52;;;9.70;99.90;;;9.85;100.00;101376.69;5006236;28;20325;-67
2022/10/27 05:09:14;;;;;;;179.20;167.27;;;9.70;99.90;;;9.72;100.00;101359.63;5009239;28;20254;-67
2022/10/27 05:11:41;;;;;;;187.32;175.00;;;9.70;99.90;;;9.75;100.00;101369.38;5005100;28;20251;-67
2022/10/27 05:14:08;;;;;;;179.65;167.95;;;9.60;99.90;;;9.67;100.00;101361.25;4987931;28;20233;-67
2022/10/27 05:16:35;;;;;;;187.48;174.90;;;9.40;99.90;;;9.55;100.00;101353.00;4979165;28;20255;-67
2022/10/27 05:19:02;;;;;;;189.27;176.48;;;9.40;99.90;;;9.58;100.00;101355.72;5001669;28;20310;-67
2022/10/27 05:21:29;;;;;;;184.30;172.07;;;9.40;99.90;;;9.58;100.00;101350.44;5019717;28;20233;-67
2022/10/27 05:23:56;;;;;;;190.00;176.23;;;9.50;99.90;;;9.44;100.00;101346.50;5014957;28;20334;-67
2022/10/27 05:26:23;;;;;;;172.65;161.73;;;9.40;99.90;;;9.41;100.00;101342.03;4999914;28;20312;-67
2022/10/27 05:28:50;;;;;;;185.77;173.15;;;9.30;99.90;;;9.37;100.00;101339.28;5000886;28;20227;-67
2022/10/27 05:31:17;;;;;;;200.88;187.35;;;9.20;99.90;;;9.26;100.00;101333.69;5009405;28;20231;-67
2022/10/27 05:33:44;;;;;;;218.23;201.90;;;9.10;99.90;;;9.34;100.00;101341.81;5019927;28;20250;-67
2022/10/27 05:36:11;;;;;;;202.25;188.63;;;9.20;99.90;;;9.47;100.00;101359.81;5009010;28;20314;-67
2022/10/27 05:38:38;;;;;;;196.70;185.05;;;9.30;99.90;;;9.43;100.00;101355.28;5001963;28;20262;-68
2022/10/27 05:41:05;;;;;;;217.48;200.82;;;9.30;99.90;;;9.24;100.00;101335.38;5003074;28;20317;-66
2022/10/27 05:43:32;;;;;;;208.95;195.23;;;9.20;99.90;;;9.27;100.00;101341.66;5011023;28;20303;-67
2022/10/27 05:46:05;;;;;;;206.25;193.23;;;9.20;99.90;;;9.37;100.00;101345.44;5005166;28;20391;-67
2022/10/27 05:48:32;;;;;;;193.93;182.32;;;9.20;99.90;;;9.39;100.00;101343.75;5025712;28;20231;-67
2022/10/27 05:50:59;;;;;;;200.05;186.80;;;9.30;99.90;;;9.36;100.00;101345.41;5018076;28;20230;-67
2022/10/27 05:53:26;;;;;;;211.40;197.18;;;9.20;99.90;;;9.30;100.00;101333.81;5001606;28;20235;-66
2022/10/27 05:55:54;;;;;;;218.27;201.70;;;9.20;99.90;;;9.30;100.00;101333.81;4995744;28;20235;-67
2022/10/27 05:58:21;;;;;;;201.35;187.73;;;9.20;99.90;;;9.28;100.00;101324.06;5030293;28;20234;-67
2022/10/27 06:00:48;;;;;;;205.05;190.77;;;9.20;99.90;;;9.13;100.00;101303.41;4991389;28;20285;-67
2022/10/27 06:03:23;;;;;;;202.77;188.95;;;9.10;99.90;;;9.05;100.00;101307.53;4993686;28;20338;-67
2022/10/27 06:05:51;;;;;;;181.02;168.93;;;8.90;99.90;;;9.02;100.00;101302.19;5024964;28;20309;-67
2022/10/27 06:08:19;;;;;;;177.25;165.25;;;8.90;99.90;;;8.94;100.00;101301.97;5021738;28;20659;-67
2022/10/27 06:10:47;;;;;;;185.10;171.13;;;8.90;99.90;;;8.95;100.00;101303.75;5006013;28;20314;-67
2022/10/27 06:13:13;;;;;;;178.10;165.43;;;8.90;99.90;;;9.02;100.00;101302.19;4998200;28;20592;-67
2022/10/27 06:15:41;;;;;;;176.98;163.85;;;8.90;99.90;;;9.08;100.00;101309.38;5019509;28;20242;-67
2022/10/27 06:18:13;;;;;;;182.30;167.95;;;8.90;99.90;;;9.04;100.00;101305.75;4998882;28;20231;-67
2022/10/27 06:20:41;;;;;;;160.85;149.73;;;8.90;99.90;;;9.05;100.00;101311.94;5012036;28;20282;-67
2022/10/27 06:23:08;;;;;;;167.75;156.18;;;8.90;99.90;;;8.95;100.00;101318.69;5020025;28;20242;-67
2022/10/27 06:25:35;;;;;;;167.95;157.40;;;8.90;99.90;;;9.02;100.00;101331.19;5020839;28;20262;-67
2022/10/27 06:28:02;;;;;;;176.82;164.88;;;8.90;99.90;;;9.26;100.00;101347.78;5003043;28;20397;-67
2022/10/27 06:30:29;;;;;;;170.02;158.45;;;9.00;99.90;;;9.42;100.00;101364.94;5004471;28;20266;-66
2022/10/27 06:32:55;;;;;;;175.88;163.68;;;9.30;99.90;;;9.40;100.00;101366.66;5010602;28;20644;-67
2022/10/27 06:35:23;;;;;;;186.10;172.38;;;9.30;99.90;;;9.08;100.00;101356.88;5016565;28;20227;-67
2022/10/27 06:37:50;;;;;;;188.70;174.50;;;9.10;99.90;;;9.06;100.00;101366.50;5004118;28;20315;-67
2022/10/27 06:40:18;;;;;;;172.75;160.98;;;9.00;99.90;;;9.10;100.00;101378.94;5003039;28;20253;-67
2022/10/27 06:42:49;;;;;;;182.05;168.90;;;8.90;99.90;;;9.08;100.00;101372.72;5006404;28;20251;-66
2022/10/27 06:45:32;;;;;;;162.95;152.68;;;9.00;99.90;;;9.12;100.00;101386.06;5017325;28;20256;-66
2022/10/27 06:48:02;;;;;;;175.07;163.05;;;9.00;99.90;;;9.11;100.00;101388.66;5016589;28;20257;-67
2022/10/27 06:50:30;;;;;;;171.45;158.38;;;9.00;99.90;;;9.12;100.00;101388.72;5003944;28;20258;-67
2022/10/27 06:52:58;;;;;;;165.85;154.27;;;9.00;99.90;;;9.14;100.00;101396.66;5017618;28;20256;-67
2022/10/27 06:55:25;;;;;;;174.20;160.65;;;9.00;99.90;;;9.17;100.00;101397.66;5010483;28;20322;-67
2022/10/27 06:57:52;;;;;;;191.98;175.15;;;9.10;99.90;;;9.16;100.00;101408.16;4994905;28;20334;-66
2022/10/27 07:00:22;;;;;;;174.35;161.02;;;9.00;99.90;;;9.19;100.00;101406.53;5008186;28;20721;-67
2022/10/27 07:02:49;;;;;;;171.90;158.98;;;9.10;99.90;;;9.22;100.00;101417.16;5009524;28;20735;-67
2022/10/27 07:05:16;;;;;;;177.23;163.80;;;9.10;99.90;;;9.32;100.00;101420.97;5013238;28;20258;-67
2022/10/27 07:07:50;;;;;;;164.88;154.25;;;9.20;99.90;;;9.43;100.00;101437.13;5010751;28;20314;-67
2022/10/27 07:10:19;;;;;;;156.70;146.15;;;9.30;99.90;;;9.51;100.00;101447.06;5008414;28;20234;-67
2022/10/27 07:12:53;;;;;;;152.00;141.85;;;9.40;99.90;;;9.52;100.00;101450.59;5007631;28;20338;-66
2022/10/27 07:15:21;;;;;;;148.30;137.48;;;9.40;99.90;;;9.55;100.00;101448.94;5009319;28;20593;-67
2022/10/27 07:17:57;;;;;;;163.50;151.77;;;9.40;99.90;;;9.59;100.00;101452.56;5018546;28;20282;-67
2022/10/27 07:20:27;;;;;;;173.10;160.25;;;9.50;99.90;;;9.65;100.00;101467.72;4998170;28;20286;-67
2022/10/27 07:22:59;;;;;;;176.40;165.05;;;9.50;99.90;;;9.68;100.00;101457.22;5010026;28;20231;-67
2022/10/27 07:25:28;;;;;;;156.25;146.40;;;9.60;99.90;;;9.71;100.00;101462.59;4999501;28;20281;-67
2022/10/27 07:27:55;;;;;;;152.43;141.70;;;9.60;99.90;;;9.75;100.00;101470.66;4980720;28;20317;-67
2022/10/27 07:30:28;;;;;;;161.23;149.73;;;9.60;99.90;;;9.77;100.00;101468.97;4996353;28;20302;-67
2022/10/27 07:32:57;;;;;;;155.52;143.85;;;9.70;99.90;;;9.84;100.00;101484.13;4971324;28;20297;-67
2022/10/27 07:35:25;;;;;;;155.95;144.98;;;9.70;99.90;;;9.92;100.00;101485.25;4992529;28;20232;-67
2022/10/27 07:37:52;;;;;;;158.25;145.45;;;9.80;99.90;;;10.11;100.00;101496.31;5020410;28;20235;-67
2022/10/27 07:40:21;;;;;;;153.55;142.52;;;9.90;99.90;;;10.19;100.00;101502.72;4988597;28;20298;-67
2022/10/27 07:42:55;;;;;;;157.70;146.40;;;10.00;99.90;;;10.23;100.00;101508.16;5003842;28;20238;-67
2022/10/27 07:45:25;;;;;;;160.00;148.77;;;10.10;99.90;;;10.15;100.00;101504.38;5004858;28;20224;-67
2022/10/27 07:47:54;;;;;;;159.68;149.07;;;10.10;99.90;;;10.39;100.00;101512.13;5014676;28;20227;-67
2022/10/27 07:50:31;;;;;;;161.27;149.45;;;10.20;99.90;;;10.53;100.00;101518.72;5000775;28;20231;-67
2022/10/27 07:53:00;;;;;;;160.73;148.13;;;10.30;99.90;;;10.62;100.00;101519.81;4995415;28;20314;-67
2022/10/27 07:55:29;;;;;;;147.77;138.52;;;10.40;99.90;;;10.54;100.00;101525.78;4995500;28;20260;-67
2022/10/27 07:58:02;;;;;;;153.80;143.40;;;10.50;99.90;;;10.66;100.00;101525.22;5015806;28;20250;-67
2022/10/27 08:00:30;;;;;;;152.60;142.88;;;10.50;99.90;;;10.84;100.00;101538.91;4997496;28;20339;-67
2022/10/27 08:03:01;;;;;;;160.57;150.18;;;10.60;99.90;;;10.97;100.00;101540.13;5017257;28;20333;-67
2022/10/27 08:05:31;;;;;;;175.63;163.60;;;10.70;99.90;;;10.93;100.00;101540.00;4996750;28;20315;-67
2022/10/27 08:08:04;;;;;;;164.60;153.93;;;10.80;99.90;;;11.18;100.00;101556.53;5003669;28;20318;-66
2022/10/27 08:10:35;;;;;;;168.43;155.38;;;11.00;99.90;;;11.20;100.00;101552.16;5023859;28;20226;-67
2022/10/27 08:13:02;;;;;;;180.57;169.20;;;11.00;99.90;;;11.25;100.00;101552.28;5011287;28;20224;-67
2022/10/27 08:15:30;;;;;;;193.90;181.10;;;11.10;99.90;;;11.27;100.00;101555.84;4991056;28;20361;-67
2022/10/27 08:18:00;;;;;;;189.10;177.35;;;11.10;99.90;;;11.33;100.00;101556.00;4996802;28;20235;-67
2022/10/27 08:20:33;;;;;;;203.32;191.45;;;11.10;99.90;;;11.49;100.00;101554.59;5004831;28;20231;-67
2022/10/27 08:23:04;;;;;;;201.40;188.90;;;11.30;99.90;;;11.77;100.00;101572.06;4999284;28;20256;-67
2022/10/27 08:25:32;;;;;;;194.73;181.77;;;11.50;99.90;;;11.82;100.00;101551.88;4993581;28;20239;-67
2022/10/27 08:27:59;;;;;;;198.80;186.70;;;11.70;99.90;;;11.97;100.00;101557.50;5012236;28;20318;-67
2022/10/27 08:30:30;;;;;;;212.30;200.80;;;11.80;99.90;;;12.18;100.00;101575.63;5024320;28;20306;-67
2022/10/27 08:33:03;;;;;;;222.73;209.32;;;11.90;99.90;;;12.24;100.00;101577.50;5006258;28;20229;-67
2022/10/27 08:35:32;;;;;;;219.68;206.68;;;12.10;99.90;;;12.42;100.00;101586.72;4994633;28;20690;-66
2022/10/27 08:38:15;;;;;;;211.13;195.93;;;12.20;99.90;;;12.31;100.00;101572.34;5007219;28;20259;-67
2022/10/27 08:41:12;;;;;;;231.55;217.55;;;12.20;99.90;;;12.57;100.00;101582.59;5005458;28;20226;-67
2022/10/27 08:44:07;;;;;;;257.00;242.18;;;12.30;99.90;;;12.61;100.00;101582.69;4998267;28;20231;-68
2022/10/27 08:46:51;;;;;;;252.20;236.90;;;12.40;99.90;;;12.56;100.00;101573.72;4988117;28;20223;-67
2022/10/27 08:49:37;;;;;;;242.55;226.13;;;12.40;99.90;;;12.71;100.00;101584.63;4976609;28;20236;-67
2022/10/27 08:52:15;;;;;;;245.10;231.52;;;12.50;99.90;;;12.82;100.00;101583.06;4997388;28;20263;-66
2022/10/27 08:54:48;;;;;;;258.42;243.48;;;12.60;99.90;;;12.95;100.00;101592.16;5021285;28;20262;-67
2022/10/27 08:57:30;;;;;;;241.73;228.50;;;12.70;99.90;;;13.07;100.00;101597.72;5020285;28;20319;-67
2022/10/27 09:00:03;;;;;;;242.98;231.27;;;12.90;99.90;;;13.01;100.00;101594.94;5000500;28;20317;-66
2022/10/27 09:03:03;;;;;;;227.60;212.68;;;12.90;99.90;;;13.08;100.00;101588.88;5008777;28;20234;-67
2022/10/27 09:06:01;;;;;;;223.60;211.43;;;12.90;99.90;;;13.07;100.00;101584.44;5020642;28;20310;-67
2022/10/27 09:09:06;;;;;;;248.95;237.52;;;13.00;99.90;;;13.09;100.00;101582.69;5016133;28;20573;-67
2022/10/27 09:12:14;;;;;;;259.35;244.52;;;12.90;99.90;;;13.23;100.00;101587.38;5002852;28;20243;-67
2022/10/27 09:15:08;;;;;;;270.17;255.38;;;13.10;99.90;;;13.40;100.00;101593.84;5013330;28;20231;-67
2022/10/27 09:17:58;;;;;;;254.52;240.68;;;13.20;99.90;;;13.49;100.00;101583.38;5014560;28;20301;-67
2022/10/27 09:20:55;;;;;;;271.42;247.40;;;13.30;99.90;;;13.62;100.00;101584.44;4995683;28;20321;-67
2022/10/27 09:23:36;;;;;;;281.52;264.85;;;13.40;99.90;;;13.80;100.00;101590.03;5004734;28;20230;-69
2022/10/27 09:26:04;;;;;;;282.92;267.98;;;13.50;99.90;;;13.76;100.00;101586.44;5003394;28;20231;-66
2022/10/27 09:28:40;;;;;;;297.60;281.55;;;13.60;99.90;;;13.74;100.00;101566.91;5004893;28;20235;-66
2022/10/27 09:31:24;;;;;;;281.58;266.33;;;13.60;99.90;;;13.75;100.00;101563.38;4983652;28;20228;-66
2022/10/27 09:34:09;;;;;;;305.00;288.23;;;13.60;99.90;;;13.89;100.00;101565.34;5020653;28;20250;-66
2022/10/27 09:36:38;;;;;;;280.60;265.52;;;13.70;99.90;;;13.92;100.00;101555.63;5021250;28;20660;-66
2022/10/27 09:39:05;;;;;;;203.07;192.02;;;13.70;99.90;;;14.05;100.00;101556.69;4998196;28;20311;-66
2022/10/27 09:41:32;;;;;;;248.35;232.90;;;13.80;99.90;;;14.18;100.00;101544.41;4998012;28;20235;-66
2022/10/27 09:43:59;;;;;;;238.68;225.68;;;13.90;99.90;;;14.27;100.00;101540.09;4999777;28;20326;-66
2022/10/27 09:46:28;;;;;;;249.13;236.00;;;14.00;99.90;;;14.30;100.00;101544.56;4999879;28;20235;-66
2022/10/27 09:49:04;;;;;;;251.45;237.38;;;14.10;99.90;;;14.52;100.00;101553.75;4998445;28;20314;-66
2022/10/27 09:51:45;;;;;;;271.13;256.55;;;14.20;99.90;;;14.84;100.00;101570.03;5002567;28;20250;-66
2022/10/27 09:54:38;;;;;;;271.50;258.85;;;14.40;99.90;;;14.90;100.00;101564.78;5022432;28;20302;-67
2022/10/27 09:57:15;;;;;;;283.90;268.45;;;14.60;99.90;;;14.96;100.00;101559.50;5011167;28;21691;-67
2022/10/27 09:59:42;;;;;;;287.02;272.23;;;14.70;99.90;;;15.19;100.00;101557.94;5022233;28;20258;-67
2022/10/27 10:02:29;;;;;;;282.75;266.35;;;14.90;99.90;;;15.06;100.00;101548.06;4986443;28;20306;-67
2022/10/27 10:04:58;;;;;;;302.65;287.90;;;14.90;99.90;;;15.35;100.00;101551.84;4987270;28;20669;-67
2022/10/27 10:07:31;;;;;;;317.00;301.27;;;15.00;99.90;;;15.43;100.00;101545.66;4997700;28;20232;-66
2022/10/27 10:10:28;;;;;;;361.27;342.08;;;15.10;99.90;;;15.55;100.00;101540.41;5015523;28;20237;-67
2022/10/27 10:13:05;;;;;;;354.40;336.80;;;15.40;99.90;;;15.55;100.00;101522.63;4996298;28;20219;-66